createdAt,value
2022-11-25T00:00:17.363Z,9
2022-11-25T00:01:17.354Z,7
2022-11-25T00:02:17.614Z,9
2022-11-25T00:03:17.519Z,9
2022-11-25T00:04:17.344Z,10
2022-11-25T00:05:17.353Z,9
2022-11-25T00:06:17.348Z,9
2022-11-25T00:07:35.637Z,9
2022-11-25T00:08:17.360Z,7
2022-11-25T00:09:17.351Z,8
2022-11-25T00:10:17.356Z,7
2022-11-25T00:11:17.352Z,8
2022-11-25T00:12:17.360Z,10
2022-11-25T00:13:17.362Z,7
2022-11-25T00:14:17.344Z,9
2022-11-25T00:15:17.355Z,8
2022-11-25T00:16:17.458Z,8
2022-11-25T00:17:17.397Z,8
2022-11-25T00:18:17.356Z,9
2022-11-25T00:19:17.377Z,11
2022-11-25T00:20:17.342Z,7
2022-11-25T00:21:17.368Z,7
2022-11-25T00:22:17.353Z,6
2022-11-25T00:23:17.363Z,8
2022-11-25T00:24:17.359Z,11
2022-11-25T00:25:17.347Z,9
2022-11-25T00:26:17.346Z,10
2022-11-25T00:28:17.364Z,10
2022-11-25T00:29:17.335Z,10
2022-11-25T00:30:17.366Z,7
2022-11-25T00:32:17.360Z,9
2022-11-25T00:34:17.357Z,8
2022-11-25T00:35:31.452Z,8
2022-11-25T00:36:45.574Z,6
2022-11-25T00:38:26.411Z,7
2022-11-25T00:39:40.466Z,7
2022-11-25T00:39:59.006Z,5
2022-11-25T00:40:56.629Z,10
2022-11-25T00:41:33.707Z,7
2022-11-25T00:42:17.346Z,7
2022-11-25T00:43:17.347Z,8
2022-11-25T00:44:17.347Z,7
2022-11-25T00:45:17.359Z,11
2022-11-25T00:46:17.425Z,10
2022-11-25T00:47:17.359Z,8
2022-11-25T00:48:17.352Z,9
2022-11-25T00:49:17.354Z,8
2022-11-25T00:50:17.347Z,7
2022-11-25T00:51:17.356Z,6
2022-11-25T00:52:17.426Z,9
2022-11-25T00:53:17.340Z,7
2022-11-25T00:54:17.346Z,12
2022-11-25T00:55:17.354Z,8
2022-11-25T00:56:17.352Z,7
2022-11-25T00:57:17.353Z,8
2022-11-25T00:58:17.355Z,8
2022-11-25T00:59:17.347Z,6
2022-11-25T01:00:17.364Z,7
2022-11-25T01:01:17.392Z,9
2022-11-25T01:02:17.573Z,8
2022-11-25T01:03:17.337Z,8
2022-11-25T01:04:17.352Z,9
2022-11-25T01:05:17.365Z,10
2022-11-25T01:06:17.347Z,9
2022-11-25T01:07:35.577Z,7
2022-11-25T01:08:17.357Z,11
2022-11-25T01:09:17.371Z,7
2022-11-25T01:10:17.351Z,9
2022-11-25T01:11:17.390Z,10
2022-11-25T01:12:17.349Z,12
2022-11-25T01:13:17.349Z,9
2022-11-25T01:14:17.352Z,8
2022-11-25T01:15:17.359Z,9
2022-11-25T01:16:17.390Z,7
2022-11-25T01:17:17.351Z,7
2022-11-25T01:18:17.375Z,13
2022-11-25T01:19:17.483Z,11
2022-11-25T01:20:17.341Z,7
2022-11-25T01:21:17.358Z,8
2022-11-25T01:22:17.358Z,10
2022-11-25T01:23:17.345Z,5
2022-11-25T01:24:17.345Z,9
2022-11-25T01:25:17.382Z,6
2022-11-25T01:26:17.349Z,9
2022-11-25T01:27:17.336Z,7
2022-11-25T01:28:17.353Z,7
2022-11-25T01:29:17.353Z,8
2022-11-25T01:30:17.353Z,7
2022-11-25T01:31:17.497Z,9
2022-11-25T01:32:17.369Z,7
2022-11-25T01:33:17.341Z,8
2022-11-25T01:34:17.352Z,8
2022-11-25T01:35:17.347Z,7
2022-11-25T01:36:17.382Z,10
2022-11-25T01:37:17.389Z,9
2022-11-25T01:38:17.399Z,7
2022-11-25T01:39:17.360Z,7
2022-11-25T01:40:17.370Z,9
2022-11-25T01:41:17.345Z,10
2022-11-25T01:42:17.372Z,11
2022-11-25T01:43:17.349Z,11
2022-11-25T01:44:17.341Z,6
2022-11-25T01:45:17.335Z,7
2022-11-25T01:46:17.481Z,9
2022-11-25T01:47:17.349Z,9
2022-11-25T01:48:17.373Z,10
2022-11-25T01:49:17.360Z,10
2022-11-25T01:50:17.452Z,9
2022-11-25T01:51:17.351Z,6
2022-11-25T01:52:17.351Z,7
2022-11-25T01:53:17.445Z,11
2022-11-25T01:54:17.348Z,11
2022-11-25T01:55:17.530Z,7
2022-11-25T01:56:17.367Z,9
2022-11-25T01:57:17.362Z,10
2022-11-25T01:58:17.365Z,10
2022-11-25T01:59:17.349Z,9
2022-11-25T02:00:17.388Z,7
2022-11-25T02:01:17.430Z,10
2022-11-25T02:02:17.560Z,8
2022-11-25T02:03:17.361Z,7
2022-11-25T02:04:17.335Z,8
2022-11-25T02:05:17.357Z,8
2022-11-25T02:08:17.356Z,10
2022-11-25T02:09:17.357Z,8
2022-11-25T02:10:17.392Z,9
2022-11-25T02:11:17.374Z,6
2022-11-25T02:12:17.356Z,7
2022-11-25T02:13:17.520Z,6
2022-11-25T02:14:17.370Z,8
2022-11-25T02:15:17.344Z,9
2022-11-25T02:16:17.440Z,7
2022-11-25T02:17:33.640Z,10
2022-11-25T02:18:27.160Z,7
2022-11-25T02:19:17.335Z,9
2022-11-25T02:20:17.399Z,11
2022-11-25T02:21:17.348Z,9
2022-11-25T02:22:17.355Z,9
2022-11-25T02:23:17.360Z,7
2022-11-25T02:24:17.399Z,7
2022-11-25T02:25:17.391Z,11
2022-11-25T02:26:17.528Z,10
2022-11-25T02:27:17.377Z,8
2022-11-25T02:28:17.541Z,8
2022-11-25T02:29:17.577Z,8
2022-11-25T02:30:17.470Z,9
2022-11-25T02:31:17.517Z,8
2022-11-25T02:32:17.342Z,9
2022-11-25T02:33:17.352Z,7
2022-11-25T02:34:17.940Z,7
2022-11-25T02:35:17.357Z,10
2022-11-25T02:36:17.348Z,9
2022-11-25T02:37:17.350Z,9
2022-11-25T02:38:17.363Z,10
2022-11-25T02:39:17.354Z,7
2022-11-25T02:40:17.348Z,8
2022-11-25T02:41:17.348Z,7
2022-11-25T02:42:17.387Z,7
2022-11-25T02:43:17.357Z,6
2022-11-25T02:44:17.369Z,8
2022-11-25T02:45:17.356Z,9
2022-11-25T02:46:21.808Z,7
2022-11-25T02:47:17.344Z,11
2022-11-25T02:48:17.358Z,9
2022-11-25T02:49:17.354Z,10
2022-11-25T02:50:17.345Z,8
2022-11-25T02:51:17.351Z,8
2022-11-25T02:52:17.347Z,11
2022-11-25T02:53:17.339Z,8
2022-11-25T02:54:17.370Z,8
2022-11-25T02:55:17.357Z,12
2022-11-25T02:56:17.338Z,7
2022-11-25T02:57:17.354Z,7
2022-11-25T02:58:17.348Z,9
2022-11-25T02:59:17.372Z,11
2022-11-25T03:01:17.429Z,11
2022-11-25T03:02:17.381Z,8
2022-11-25T03:03:17.356Z,15
2022-11-25T03:04:17.358Z,8
2022-11-25T03:05:17.349Z,6
2022-11-25T03:06:17.342Z,7
2022-11-25T03:07:17.422Z,7
2022-11-25T03:08:17.359Z,6
2022-11-25T03:09:17.355Z,8
2022-11-25T03:10:17.344Z,7
2022-11-25T03:11:17.355Z,8
2022-11-25T03:12:17.339Z,8
2022-11-25T03:13:17.391Z,7
2022-11-25T03:14:17.355Z,8
2022-11-25T03:15:17.348Z,7
2022-11-25T03:16:17.405Z,10
2022-11-25T03:17:39.433Z,6
2022-11-25T03:18:17.350Z,9
2022-11-25T03:19:17.342Z,8
2022-11-25T03:20:17.439Z,9
2022-11-25T03:21:17.358Z,7
2022-11-25T03:22:17.369Z,7
2022-11-25T03:23:17.378Z,9
2022-11-25T03:24:17.362Z,7
2022-11-25T03:25:17.366Z,7
2022-11-25T03:26:17.383Z,10
2022-11-25T03:27:17.363Z,9
2022-11-25T03:28:17.355Z,7
2022-11-25T03:29:17.380Z,9
2022-11-25T03:30:17.385Z,8
2022-11-25T03:31:17.401Z,6
2022-11-25T03:32:17.399Z,8
2022-11-25T03:33:17.375Z,7
2022-11-25T03:34:17.367Z,8
2022-11-25T03:35:17.359Z,9
2022-11-25T03:36:17.376Z,6
2022-11-25T03:37:17.460Z,6
2022-11-25T03:38:17.362Z,7
2022-11-25T03:39:17.368Z,9
2022-11-25T03:40:17.352Z,6
2022-11-25T03:41:17.366Z,6
2022-11-25T03:42:17.358Z,8
2022-11-25T03:43:17.352Z,5
2022-11-25T03:44:17.389Z,8
2022-11-25T03:45:17.356Z,9
2022-11-25T03:46:17.394Z,8
2022-11-25T03:47:17.361Z,9
2022-11-25T03:48:17.365Z,11
2022-11-25T03:49:17.366Z,9
2022-11-25T03:50:17.361Z,8
2022-11-25T03:51:17.427Z,9
2022-11-25T03:52:17.369Z,9
2022-11-25T03:53:17.358Z,10
2022-11-25T03:54:17.356Z,8
2022-11-25T03:55:17.347Z,7
2022-11-25T03:56:17.369Z,8
2022-11-25T03:57:17.340Z,7
2022-11-25T03:58:17.352Z,9
2022-11-25T03:59:17.360Z,7
2022-11-25T04:00:17.378Z,9
2022-11-25T04:01:17.421Z,8
2022-11-25T04:02:17.422Z,7
2022-11-25T04:03:17.360Z,9
2022-11-25T04:04:17.362Z,9
2022-11-25T04:05:17.419Z,8
2022-11-25T04:06:17.343Z,6
2022-11-25T04:07:17.432Z,8
2022-11-25T04:08:17.374Z,8
2022-11-25T04:09:17.361Z,8
2022-11-25T04:10:17.378Z,7
2022-11-25T04:11:17.362Z,10
2022-11-25T04:12:17.352Z,10
2022-11-25T04:13:17.461Z,7
2022-11-25T04:14:17.356Z,6
2022-11-25T04:15:17.392Z,8
2022-11-25T04:16:17.419Z,7
2022-11-25T04:18:17.359Z,9
2022-11-25T04:19:17.346Z,8
2022-11-25T04:20:17.357Z,8
2022-11-25T04:21:17.374Z,9
2022-11-25T04:22:17.353Z,7
2022-11-25T04:23:17.344Z,8
2022-11-25T04:24:17.357Z,8
2022-11-25T04:25:17.338Z,8
2022-11-25T04:26:17.343Z,9
2022-11-25T04:27:19.268Z,7
2022-11-25T04:28:17.347Z,8
2022-11-25T04:29:17.355Z,9
2022-11-25T04:30:17.349Z,5
2022-11-25T04:31:17.531Z,11
2022-11-25T04:32:17.350Z,9
2022-11-25T04:33:17.409Z,6
2022-11-25T04:34:17.355Z,8
2022-11-25T04:35:17.345Z,5
2022-11-25T04:36:17.342Z,10
2022-11-25T04:37:17.347Z,9
2022-11-25T04:38:17.362Z,9
2022-11-25T04:39:17.364Z,7
2022-11-25T04:40:17.344Z,8
2022-11-25T04:41:17.369Z,8
2022-11-25T04:42:17.357Z,6
2022-11-25T04:43:17.350Z,8
2022-11-25T04:44:17.356Z,7
2022-11-25T04:45:24.857Z,7
2022-11-25T04:46:17.485Z,7
2022-11-25T04:47:17.372Z,10
2022-11-25T04:48:17.387Z,4
2022-11-25T04:49:17.362Z,8
2022-11-25T04:50:17.344Z,8
2022-11-25T04:51:17.413Z,10
2022-11-25T04:52:17.350Z,9
2022-11-25T04:53:17.357Z,7
2022-11-25T04:54:17.712Z,8
2022-11-25T04:55:17.360Z,9
2022-11-25T04:56:17.356Z,7
2022-11-25T04:57:17.356Z,8
2022-11-25T04:58:17.339Z,9
2022-11-25T04:59:17.389Z,10
2022-11-25T05:00:17.346Z,13
2022-11-25T05:01:17.451Z,6
2022-11-25T05:02:17.406Z,10
2022-11-25T05:03:17.342Z,9
2022-11-25T05:04:17.348Z,11
2022-11-25T05:05:17.349Z,10
2022-11-25T05:06:17.363Z,11
2022-11-25T05:07:17.385Z,10
2022-11-25T05:08:17.376Z,10
2022-11-25T05:09:17.372Z,9
2022-11-25T05:10:17.345Z,12
2022-11-25T05:11:17.350Z,9
2022-11-25T05:12:17.361Z,6
2022-11-25T05:13:17.361Z,11
2022-11-25T05:14:17.346Z,9
2022-11-25T05:15:17.429Z,9
2022-11-25T05:16:17.388Z,7
2022-11-25T05:17:17.383Z,8
2022-11-25T05:18:17.361Z,10
2022-11-25T05:19:17.343Z,6
2022-11-25T05:20:17.351Z,8
2022-11-25T05:21:17.348Z,10
2022-11-25T05:22:17.360Z,7
2022-11-25T05:23:17.374Z,9
2022-11-25T05:24:17.347Z,7
2022-11-25T05:25:17.343Z,6
2022-11-25T05:26:17.340Z,7
2022-11-25T05:27:17.354Z,9
2022-11-25T05:28:17.394Z,9
2022-11-25T05:29:17.345Z,9
2022-11-25T05:30:17.449Z,5
2022-11-25T05:31:17.406Z,7
2022-11-25T05:32:17.347Z,9
2022-11-25T05:33:17.348Z,6
2022-11-25T05:34:17.370Z,8
2022-11-25T05:35:17.372Z,9
2022-11-25T05:36:17.389Z,6
2022-11-25T05:37:22.687Z,6
2022-11-25T05:38:17.365Z,7
2022-11-25T05:39:17.380Z,6
2022-11-25T05:40:17.338Z,5
2022-11-25T05:41:17.342Z,9
2022-11-25T05:42:17.348Z,9
2022-11-25T05:43:17.420Z,8
2022-11-25T05:44:22.603Z,7
2022-11-25T05:45:17.352Z,5
2022-11-25T05:46:17.437Z,9
2022-11-25T05:47:17.340Z,9
2022-11-25T05:48:17.363Z,6
2022-11-25T05:49:17.349Z,8
2022-11-25T05:50:17.374Z,7
2022-11-25T05:51:17.344Z,8
2022-11-25T05:52:17.348Z,9
2022-11-25T05:53:17.379Z,8
2022-11-25T05:54:17.349Z,8
2022-11-25T05:55:17.347Z,8
2022-11-25T05:56:17.362Z,7
2022-11-25T05:57:17.367Z,6
2022-11-25T05:58:17.356Z,7
2022-11-25T05:59:17.370Z,9
2022-11-25T06:00:20.006Z,9
2022-11-25T06:01:17.383Z,5
2022-11-25T06:02:17.389Z,7
2022-11-25T06:03:17.532Z,8
2022-11-25T06:04:17.424Z,6
2022-11-25T06:05:17.360Z,8
2022-11-25T06:06:17.382Z,10
2022-11-25T06:07:17.354Z,7
2022-11-25T06:08:17.366Z,10
2022-11-25T06:09:17.357Z,9
2022-11-25T06:10:17.353Z,9
2022-11-25T06:11:17.357Z,8
2022-11-25T06:12:17.386Z,8
2022-11-25T06:13:17.410Z,12
2022-11-25T06:14:17.366Z,10
2022-11-25T06:15:17.350Z,13
2022-11-25T06:16:17.484Z,13
2022-11-25T06:17:17.362Z,15
2022-11-25T06:18:17.350Z,18
2022-11-25T06:19:17.371Z,15
2022-11-25T06:20:17.357Z,17
2022-11-25T06:21:17.362Z,15
2022-11-25T06:22:17.345Z,16
2022-11-25T06:23:17.354Z,10
2022-11-25T06:24:17.360Z,11
2022-11-25T06:25:17.361Z,12
2022-11-25T06:26:17.347Z,8
2022-11-25T06:27:17.354Z,9
2022-11-25T06:28:17.356Z,8
2022-11-25T06:29:17.377Z,9
2022-11-25T06:30:17.391Z,9
2022-11-25T06:31:17.415Z,11
2022-11-25T06:32:17.359Z,13
2022-11-25T06:33:17.347Z,16
2022-11-25T06:34:17.370Z,13
2022-11-25T06:35:17.365Z,9
2022-11-25T06:36:17.476Z,10
2022-11-25T06:37:17.355Z,8
2022-11-25T06:38:27.371Z,11
2022-11-25T06:39:17.364Z,11
2022-11-25T06:40:17.365Z,8
2022-11-25T06:41:17.345Z,7
2022-11-25T06:42:17.406Z,7
2022-11-25T06:43:17.362Z,8
2022-11-25T06:44:17.369Z,10
2022-11-25T06:45:17.338Z,10
2022-11-25T06:46:21.348Z,7
2022-11-25T06:47:17.344Z,6
2022-11-25T06:48:17.351Z,7
2022-11-25T06:49:17.355Z,6
2022-11-25T06:50:17.376Z,9
2022-11-25T06:51:17.436Z,6
2022-11-25T06:52:17.350Z,9
2022-11-25T06:53:21.166Z,8
2022-11-25T06:54:17.355Z,12
2022-11-25T06:55:17.377Z,9
2022-11-25T06:56:17.349Z,10
2022-11-25T06:57:17.372Z,9
2022-11-25T06:58:34.828Z,9
2022-11-25T06:59:17.355Z,12
2022-11-25T07:00:17.344Z,11
2022-11-25T07:01:17.409Z,8
2022-11-25T07:02:17.415Z,12
2022-11-25T07:03:17.421Z,9
2022-11-25T07:04:17.601Z,7
2022-11-25T07:05:17.348Z,8
2022-11-25T07:06:17.351Z,10
2022-11-25T07:07:17.374Z,10
2022-11-25T07:08:17.347Z,9
2022-11-25T07:09:17.373Z,9
2022-11-25T07:10:17.345Z,5
2022-11-25T07:11:17.352Z,9
2022-11-25T07:12:17.335Z,8
2022-11-25T07:13:17.353Z,11
2022-11-25T07:14:17.360Z,6
2022-11-25T07:15:17.345Z,9
2022-11-25T07:16:17.432Z,8
2022-11-25T07:17:17.353Z,9
2022-11-25T07:18:17.341Z,9
2022-11-25T07:19:17.353Z,9
2022-11-25T07:20:17.343Z,9
2022-11-25T07:21:17.365Z,9
2022-11-25T07:22:17.345Z,9
2022-11-25T07:23:17.352Z,10
2022-11-25T07:24:17.385Z,8
2022-11-25T07:25:17.348Z,10
2022-11-25T07:26:17.353Z,9
2022-11-25T07:27:17.352Z,10
2022-11-25T07:28:17.360Z,9
2022-11-25T07:29:44.274Z,11
2022-11-25T07:31:28.192Z,9
2022-11-25T07:32:17.355Z,7
2022-11-25T07:33:17.414Z,7
2022-11-25T07:34:17.353Z,8
2022-11-25T07:35:17.354Z,10
2022-11-25T07:36:17.357Z,10
2022-11-25T07:37:17.364Z,9
2022-11-25T07:38:33.451Z,6
2022-11-25T07:39:17.347Z,11
2022-11-25T07:40:17.378Z,7
2022-11-25T07:41:17.359Z,8
2022-11-25T07:42:17.347Z,9
2022-11-25T07:43:17.359Z,10
2022-11-25T07:44:17.362Z,7
2022-11-25T07:45:17.350Z,9
2022-11-25T07:46:20.814Z,7
2022-11-25T07:47:17.385Z,7
2022-11-25T07:48:17.405Z,8
2022-11-25T07:49:17.355Z,8
2022-11-25T07:50:17.357Z,7
2022-11-25T07:51:17.371Z,7
2022-11-25T07:52:17.372Z,8
2022-11-25T07:53:17.362Z,6
2022-11-25T07:54:17.389Z,6
2022-11-25T07:55:17.364Z,7
2022-11-25T07:56:17.351Z,8
2022-11-25T07:57:17.341Z,10
2022-11-25T07:58:17.373Z,8
2022-11-25T07:59:17.343Z,7
2022-11-25T08:00:17.352Z,9
2022-11-25T08:01:17.454Z,7
2022-11-25T08:02:17.468Z,7
2022-11-25T08:03:17.490Z,6
2022-11-25T08:04:20.412Z,6
2022-11-25T08:05:17.379Z,7
2022-11-25T08:06:17.348Z,5
2022-11-25T08:07:17.397Z,7
2022-11-25T08:08:17.422Z,6
2022-11-25T08:09:17.373Z,9
2022-11-25T08:10:17.342Z,9
2022-11-25T08:11:17.344Z,7
2022-11-25T08:12:17.361Z,6
2022-11-25T08:13:17.347Z,7
2022-11-25T08:14:17.361Z,6
2022-11-25T08:15:17.361Z,6
2022-11-25T08:16:17.576Z,8
2022-11-25T08:17:17.357Z,8
2022-11-25T08:18:17.359Z,9
2022-11-25T08:19:17.435Z,4
2022-11-25T08:20:17.341Z,6
2022-11-25T08:21:17.354Z,7
2022-11-25T08:22:17.361Z,7
2022-11-25T08:23:17.447Z,12
2022-11-25T08:24:17.351Z,9
2022-11-25T08:25:17.350Z,7
2022-11-25T08:26:17.347Z,8
2022-11-25T08:27:17.365Z,9
2022-11-25T08:28:17.343Z,9
2022-11-25T08:29:17.340Z,9
2022-11-25T08:30:17.419Z,5
2022-11-25T08:31:17.375Z,7
2022-11-25T08:32:17.348Z,8
2022-11-25T08:33:17.333Z,6
2022-11-25T08:34:17.352Z,7
2022-11-25T08:35:17.370Z,6
2022-11-25T08:36:17.342Z,7
2022-11-25T08:37:17.339Z,5
2022-11-25T08:38:39.508Z,7
2022-11-25T08:39:44.143Z,8
2022-11-25T08:40:17.354Z,7
2022-11-25T08:41:17.366Z,8
2022-11-25T08:42:17.355Z,5
2022-11-25T08:43:17.343Z,6
2022-11-25T08:44:17.348Z,7
2022-11-25T08:45:17.357Z,8
2022-11-25T08:46:17.468Z,8
2022-11-25T08:47:17.347Z,6
2022-11-25T08:48:17.357Z,9
2022-11-25T08:49:17.392Z,7
2022-11-25T08:50:17.359Z,5
2022-11-25T08:51:17.352Z,7
2022-11-25T08:52:17.356Z,6
2022-11-25T08:53:17.361Z,8
2022-11-25T08:54:17.380Z,7
2022-11-25T08:55:17.374Z,8
2022-11-25T08:56:20.309Z,7
2022-11-25T08:57:17.362Z,7
2022-11-25T08:58:17.345Z,6
2022-11-25T08:59:17.363Z,8
2022-11-25T09:00:17.335Z,8
2022-11-25T09:01:17.413Z,6
2022-11-25T09:02:17.527Z,7
2022-11-25T09:03:17.384Z,7
2022-11-25T09:04:17.341Z,6
2022-11-25T09:05:17.361Z,7
2022-11-25T09:06:17.364Z,8
2022-11-25T09:07:17.423Z,8
2022-11-25T09:08:17.370Z,8
2022-11-25T09:09:17.432Z,12
2022-11-25T09:10:17.357Z,8
2022-11-25T09:11:17.453Z,8
2022-11-25T09:12:17.369Z,5
2022-11-25T09:13:17.359Z,8
2022-11-25T09:14:17.410Z,7
2022-11-25T09:15:17.361Z,8
2022-11-25T09:16:17.600Z,9
2022-11-25T09:17:17.361Z,7
2022-11-25T09:18:17.370Z,7
2022-11-25T09:19:17.348Z,7
2022-11-25T09:20:17.360Z,9
2022-11-25T09:21:17.346Z,6
2022-11-25T09:22:17.351Z,7
2022-11-25T09:23:17.412Z,8
2022-11-25T09:24:17.358Z,8
2022-11-25T09:25:17.415Z,6
2022-11-25T09:26:17.359Z,8
2022-11-25T09:27:17.356Z,6
2022-11-25T09:28:17.341Z,7
2022-11-25T09:29:17.366Z,6
2022-11-25T09:30:17.384Z,7
2022-11-25T09:31:17.499Z,5
2022-11-25T09:33:17.349Z,10
2022-11-25T09:34:17.379Z,6
2022-11-25T09:35:17.366Z,4
2022-11-25T09:36:17.365Z,5
2022-11-25T09:37:17.349Z,7
2022-11-25T09:39:17.381Z,6
2022-11-25T09:40:17.430Z,5
2022-11-25T09:41:17.353Z,7
2022-11-25T09:42:17.358Z,6
2022-11-25T09:43:17.351Z,7
2022-11-25T09:44:17.348Z,5
2022-11-25T09:45:17.351Z,5
2022-11-25T09:46:17.375Z,5
2022-11-25T09:47:17.348Z,4
2022-11-25T09:48:17.349Z,7
2022-11-25T09:49:17.388Z,8
2022-11-25T09:50:17.352Z,6
2022-11-25T09:51:17.360Z,7
2022-11-25T09:52:17.361Z,6
2022-11-25T09:53:17.383Z,6
2022-11-25T09:54:17.363Z,9
2022-11-25T09:55:17.357Z,5
2022-11-25T09:56:17.383Z,6
2022-11-25T09:57:17.362Z,5
2022-11-25T09:58:17.339Z,8
2022-11-25T09:59:17.375Z,8
2022-11-25T10:00:17.378Z,5
2022-11-25T10:01:17.358Z,6
2022-11-25T10:02:17.411Z,5
2022-11-25T10:03:17.409Z,8
2022-11-25T10:04:17.381Z,5
2022-11-25T10:05:17.351Z,5
2022-11-25T10:06:17.446Z,6
2022-11-25T10:07:17.372Z,7
2022-11-25T10:08:17.387Z,7
2022-11-25T10:09:17.376Z,6
2022-11-25T10:10:17.364Z,7
2022-11-25T10:11:17.358Z,10
2022-11-25T10:12:17.358Z,6
2022-11-25T10:13:17.358Z,9
2022-11-25T10:14:17.456Z,9
2022-11-25T10:15:17.373Z,10
2022-11-25T10:16:17.437Z,8
2022-11-25T10:17:17.363Z,10
2022-11-25T10:18:17.371Z,7
2022-11-25T10:19:17.381Z,5
2022-11-25T10:20:17.358Z,7
2022-11-25T10:21:17.352Z,6
2022-11-25T10:22:17.368Z,7
2022-11-25T10:23:17.380Z,5
2022-11-25T10:24:17.373Z,5
2022-11-25T10:25:17.375Z,5
2022-11-25T10:26:17.383Z,5
2022-11-25T10:27:17.411Z,7
2022-11-25T10:28:17.353Z,6
2022-11-25T10:29:17.360Z,6
2022-11-25T10:30:17.424Z,6
2022-11-25T10:31:17.487Z,7
2022-11-25T10:32:17.370Z,5
2022-11-25T10:33:17.385Z,6
2022-11-25T10:34:17.368Z,5
2022-11-25T10:35:17.354Z,6
2022-11-25T10:36:17.369Z,4
2022-11-25T10:37:17.358Z,6
2022-11-25T10:38:19.093Z,6
2022-11-25T10:39:17.359Z,5
2022-11-25T10:40:17.476Z,6
2022-11-25T10:41:17.368Z,6
2022-11-25T10:42:17.387Z,6
2022-11-25T10:43:17.366Z,6
2022-11-25T10:44:17.357Z,6
2022-11-25T10:45:17.365Z,5
2022-11-25T10:46:17.385Z,7
2022-11-25T10:47:17.400Z,4
2022-11-25T10:48:17.361Z,4
2022-11-25T10:49:17.363Z,4
2022-11-25T10:50:17.424Z,5
2022-11-25T10:51:17.354Z,6
2022-11-25T10:52:17.354Z,6
2022-11-25T10:53:17.371Z,5
2022-11-25T10:54:18.710Z,4
2022-11-25T10:55:17.363Z,7
2022-11-25T10:56:17.358Z,5
2022-11-25T10:57:17.358Z,6
2022-11-25T10:58:17.435Z,8
2022-11-25T10:59:17.376Z,6
2022-11-25T11:00:17.719Z,8
2022-11-25T11:01:17.500Z,6
2022-11-25T11:02:17.650Z,6
2022-11-25T11:03:17.544Z,4
2022-11-25T11:04:17.383Z,5
2022-11-25T11:05:17.357Z,7
2022-11-25T11:06:17.362Z,5
2022-11-25T11:07:17.406Z,7
2022-11-25T11:08:17.371Z,6
2022-11-25T11:09:17.373Z,4
2022-11-25T11:10:17.437Z,6
2022-11-25T11:11:17.406Z,5
2022-11-25T11:12:17.371Z,5
2022-11-25T11:13:17.359Z,5
2022-11-25T11:14:17.376Z,3
2022-11-25T11:15:17.359Z,6
2022-11-25T11:16:17.417Z,8
2022-11-25T11:17:17.351Z,6
2022-11-25T11:18:17.359Z,5
2022-11-25T11:19:17.365Z,5
2022-11-25T11:20:17.359Z,6
2022-11-25T11:21:17.355Z,7
2022-11-25T11:22:17.424Z,5
2022-11-25T11:23:17.391Z,5
2022-11-25T11:24:17.378Z,5
2022-11-25T11:25:17.358Z,5
2022-11-25T11:26:17.364Z,7
2022-11-25T11:27:17.367Z,5
2022-11-25T11:28:17.354Z,6
2022-11-25T11:29:17.477Z,5
2022-11-25T11:30:17.362Z,5
2022-11-25T11:31:17.454Z,5
2022-11-25T11:32:17.361Z,5
2022-11-25T11:33:17.357Z,4
2022-11-25T11:34:17.377Z,5
2022-11-25T11:35:17.362Z,6
2022-11-25T11:36:17.382Z,5
2022-11-25T11:37:17.358Z,5
2022-11-25T11:38:17.378Z,4
2022-11-25T11:39:17.384Z,5
2022-11-25T11:40:17.372Z,5
2022-11-25T11:41:17.372Z,7
2022-11-25T11:42:17.378Z,7
2022-11-25T11:43:17.358Z,5
2022-11-25T11:44:17.389Z,7
2022-11-25T11:45:17.378Z,4
2022-11-25T11:46:17.411Z,5
2022-11-25T11:47:17.358Z,5
2022-11-25T11:48:17.351Z,7
2022-11-25T11:49:17.380Z,6
2022-11-25T11:50:17.353Z,6
2022-11-25T11:51:17.381Z,5
2022-11-25T11:52:17.444Z,6
2022-11-25T11:53:17.397Z,6
2022-11-25T11:54:17.380Z,7
2022-11-25T11:55:17.373Z,7
2022-11-25T11:57:17.356Z,7
2022-11-25T11:58:17.351Z,4
2022-11-25T11:59:27.373Z,7
2022-11-25T12:00:20.892Z,7
2022-11-25T12:01:17.360Z,8
2022-11-25T12:02:17.408Z,7
2022-11-25T12:03:17.428Z,6
2022-11-25T12:04:17.376Z,9
2022-11-25T12:05:17.371Z,8
2022-11-25T12:06:17.359Z,8
2022-11-25T12:07:17.394Z,8
2022-11-25T12:08:17.403Z,4
2022-11-25T12:09:17.361Z,8
2022-11-25T12:10:17.368Z,7
2022-11-25T12:11:17.362Z,11
2022-11-25T12:12:17.355Z,10
2022-11-25T12:13:17.387Z,7
2022-11-25T12:14:17.365Z,9
2022-11-25T12:15:17.392Z,12
2022-11-25T12:16:17.452Z,7
2022-11-25T12:17:17.373Z,8
2022-11-25T12:18:17.375Z,9
2022-11-25T12:19:17.350Z,10
2022-11-25T12:20:17.382Z,8
2022-11-25T12:21:17.374Z,8
2022-11-25T12:22:17.431Z,8
2022-11-25T12:23:17.391Z,8
2022-11-25T12:24:17.394Z,13
2022-11-25T12:26:17.362Z,25
2022-11-25T12:27:17.383Z,16
2022-11-25T12:28:17.368Z,9
2022-11-25T12:29:17.389Z,11
2022-11-25T12:30:17.368Z,8
2022-11-25T12:31:17.431Z,10
2022-11-25T12:32:17.364Z,10
2022-11-25T12:33:17.354Z,9
2022-11-25T12:34:17.373Z,8
2022-11-25T12:35:17.392Z,10
2022-11-25T12:36:17.377Z,9
2022-11-25T12:37:17.368Z,9
2022-11-25T12:38:17.386Z,11
2022-11-25T12:39:17.356Z,10
2022-11-25T12:40:17.372Z,11
2022-11-25T12:41:17.365Z,9
2022-11-25T12:42:17.365Z,8
2022-11-25T12:43:17.403Z,13
2022-11-25T12:44:17.400Z,12
2022-11-25T12:45:17.384Z,12
2022-11-25T12:46:17.490Z,14
2022-11-25T12:47:17.366Z,20
2022-11-25T12:48:21.248Z,17
2022-11-25T12:49:17.367Z,14
2022-11-25T12:50:17.420Z,10
2022-11-25T12:51:17.372Z,12
2022-11-25T12:52:17.377Z,8
2022-11-25T12:53:17.424Z,10
2022-11-25T12:54:17.577Z,8
2022-11-25T12:55:17.370Z,8
2022-11-25T12:56:17.378Z,10
2022-11-25T12:57:17.424Z,8
2022-11-25T12:58:17.450Z,9
2022-11-25T12:59:33.454Z,10
2022-11-25T13:00:40.359Z,14
2022-11-25T13:01:17.400Z,12
2022-11-25T13:02:17.424Z,9
2022-11-25T13:03:17.372Z,10
2022-11-25T13:04:17.368Z,8
2022-11-25T13:05:39.628Z,8
2022-11-25T13:06:17.412Z,9
2022-11-25T13:07:17.434Z,10
2022-11-25T13:08:17.395Z,11
2022-11-25T13:09:17.374Z,10
2022-11-25T13:10:17.373Z,10
2022-11-25T13:11:17.856Z,7
2022-11-25T13:12:17.833Z,11
2022-11-25T13:13:18.745Z,10
2022-11-25T13:14:17.686Z,9
2022-11-25T13:15:17.755Z,7
2022-11-25T13:16:17.996Z,11
2022-11-25T13:17:17.913Z,10
2022-11-25T13:18:17.452Z,6
2022-11-25T13:19:17.363Z,9
2022-11-25T13:20:17.377Z,7
2022-11-25T13:21:17.364Z,7
2022-11-25T13:22:17.378Z,8
2022-11-25T13:23:17.381Z,8
2022-11-25T13:24:17.361Z,9
2022-11-25T13:25:17.369Z,11
2022-11-25T13:26:17.385Z,5
2022-11-25T13:27:17.387Z,9
2022-11-25T13:28:17.364Z,8
2022-11-25T13:29:17.368Z,5
2022-11-25T13:30:17.375Z,8
2022-11-25T13:31:17.406Z,8
2022-11-25T13:32:17.386Z,7
2022-11-25T13:33:17.374Z,9
2022-11-25T13:34:17.379Z,7
2022-11-25T13:35:17.439Z,8
2022-11-25T13:36:17.405Z,9
2022-11-25T13:38:17.401Z,8
2022-11-25T13:39:17.366Z,8
2022-11-25T13:40:17.376Z,5
2022-11-25T13:41:17.376Z,6
2022-11-25T13:42:17.369Z,8
2022-11-25T13:43:18.998Z,8
2022-11-25T13:44:17.419Z,7
2022-11-25T13:45:17.381Z,12
2022-11-25T13:46:17.478Z,11
2022-11-25T13:47:17.395Z,11
2022-11-25T13:48:17.404Z,11
2022-11-25T13:49:17.376Z,13
2022-11-25T13:50:21.765Z,35
2022-11-25T13:51:17.378Z,30
2022-11-25T13:52:17.382Z,23
2022-11-25T13:53:17.387Z,30
2022-11-25T13:54:17.368Z,35
2022-11-25T13:55:17.373Z,52
2022-11-25T13:56:17.369Z,59
2022-11-25T13:57:17.364Z,96
2022-11-25T13:58:17.389Z,80
2022-11-25T13:59:39.741Z,56
2022-11-25T14:00:17.374Z,34
2022-11-25T14:01:17.359Z,60
2022-11-25T14:02:17.457Z,116
2022-11-25T14:03:17.419Z,80
2022-11-25T14:04:17.377Z,85
2022-11-25T14:05:17.375Z,104
2022-11-25T14:06:17.454Z,132
2022-11-25T14:07:20.024Z,93
2022-11-25T14:08:17.378Z,102
2022-11-25T14:09:17.389Z,125
2022-11-25T14:10:17.382Z,120
2022-11-25T14:11:17.364Z,184
2022-11-25T14:12:17.378Z,156
2022-11-25T14:13:17.441Z,140
2022-11-25T14:14:17.375Z,141
2022-11-25T14:15:17.384Z,114
2022-11-25T14:16:17.446Z,98
2022-11-25T14:17:17.378Z,99
2022-11-25T14:18:17.397Z,96
2022-11-25T14:19:43.749Z,98
2022-11-25T14:20:17.396Z,61
2022-11-25T14:21:17.398Z,68
2022-11-25T14:22:17.374Z,106
2022-11-25T14:23:22.191Z,296
2022-11-25T14:24:17.390Z,298
2022-11-25T14:25:17.381Z,189
2022-11-25T14:26:42.201Z,212
2022-11-25T14:27:17.411Z,351
2022-11-25T14:28:17.385Z,223
2022-11-25T14:29:17.376Z,163
2022-11-25T14:30:17.533Z,51
2022-11-25T14:31:17.472Z,35
2022-11-25T14:32:17.375Z,61
2022-11-25T14:33:17.387Z,206
2022-11-25T14:34:17.418Z,178
2022-11-25T14:35:17.380Z,257
2022-11-25T14:36:17.383Z,227
2022-11-25T14:37:17.379Z,291
2022-11-25T14:38:17.384Z,255
2022-11-25T14:39:17.374Z,195
2022-11-25T14:40:17.411Z,155
2022-11-25T14:41:17.474Z,233
2022-11-25T14:42:17.397Z,270
2022-11-25T14:43:17.386Z,206
2022-11-25T14:44:17.376Z,199
2022-11-25T14:45:17.374Z,196
2022-11-25T14:46:17.496Z,290
2022-11-25T14:47:17.379Z,274
2022-11-25T14:48:17.386Z,435
2022-11-25T14:49:44.228Z,321
2022-11-25T14:50:43.514Z,223